Portada
METAR-TAF:

METAR-TAF

Aeroports :

Lannion, França

latitud: 48-45N, longitud: 003-28W, altitud: 89 m

Observació

L'informe es va fer fa 25 minuts, a les 20:30 UTC
Vent 2 kt amb direcció variable
Temperatura 16°C
Humitat 59%
Pressió 1021 hPa
Visibilitat 10 km o més
sense núvols per sota de 1500 mi sense presència de cumulonimbus.

METAR: LFRO 292030Z AUTO VRB02KT CAVOK 16/08 Q1021

Hora: 22:55 (20:55 UTC)


TAF: manca

Observacions i pronòstics meteorològics de més de 4000 aeroports (METAR i TAF).

Les estacions disponibles són els punts grocs i vermells al mapa.

Posi el ratolí al punt desitjat per veure el nom de l'estació.

Feu clic per veure les observacions i els pronòstics meteorològics.

Per canviar el mapa: feu clic els botons verds amb una creu de color negre per apropar; al botó verd amb un guió per allunyar la imatge; o en les fletxes verdes per a mapes adjacents.


METAR-TAF: